sensor_id;sensor_type;location;lat;lon;timestamp;temperature;humidity
78297;DHT22;67555;47.660;19.622;2023-07-30T00:02:21;20.30;71.40
78297;DHT22;67555;47.660;19.622;2023-07-30T00:04:47;20.30;71.30
78297;DHT22;67555;47.660;19.622;2023-07-30T00:07:14;20.30;71.50
78297;DHT22;67555;47.660;19.622;2023-07-30T00:09:41;20.30;71.50
78297;DHT22;67555;47.660;19.622;2023-07-30T00:12:08;20.30;71.60
78297;DHT22;67555;47.660;19.622;2023-07-30T00:14:35;20.30;71.60
78297;DHT22;67555;47.660;19.622;2023-07-30T00:17:02;20.30;71.60
78297;DHT22;67555;47.660;19.622;2023-07-30T00:19:28;20.20;71.80
78297;DHT22;67555;47.660;19.622;2023-07-30T00:21:54;20.00;72.20
78297;DHT22;67555;47.660;19.622;2023-07-30T00:24:19;19.90;72.60
78297;DHT22;67555;47.660;19.622;2023-07-30T00:26:45;19.90;72.80
78297;DHT22;67555;47.660;19.622;2023-07-30T00:29:11;19.90;72.80
78297;DHT22;67555;47.660;19.622;2023-07-30T00:31:36;19.90;72.80
78297;DHT22;67555;47.660;19.622;2023-07-30T00:34:02;19.90;72.80
78297;DHT22;67555;47.660;19.622;2023-07-30T00:36:28;20.00;72.60
78297;DHT22;67555;47.660;19.622;2023-07-30T00:38:53;20.00;72.50
78297;DHT22;67555;47.660;19.622;2023-07-30T00:41:19;20.00;72.30
78297;DHT22;67555;47.660;19.622;2023-07-30T00:43:45;20.00;72.30
78297;DHT22;67555;47.660;19.622;2023-07-30T00:46:12;20.00;72.30
78297;DHT22;67555;47.660;19.622;2023-07-30T00:48:38;20.10;72.20
78297;DHT22;67555;47.660;19.622;2023-07-30T00:51:04;20.10;72.30
78297;DHT22;67555;47.660;19.622;2023-07-30T00:53:30;20.10;72.30
78297;DHT22;67555;47.660;19.622;2023-07-30T00:55:56;20.10;72.30
78297;DHT22;67555;47.660;19.622;2023-07-30T00:58:23;20.10;72.30
78297;DHT22;67555;47.660;19.622;2023-07-30T01:00:51;20.20;72.20
78297;DHT22;67555;47.660;19.622;2023-07-30T01:03:18;20.20;72.20
78297;DHT22;67555;47.660;19.622;2023-07-30T01:05:44;20.10;72.30
78297;DHT22;67555;47.660;19.622;2023-07-30T01:08:10;20.20;72.40
78297;DHT22;67555;47.660;19.622;2023-07-30T01:10:38;20.10;72.50
78297;DHT22;67555;47.660;19.622;2023-07-30T01:13:04;19.90;72.70
78297;DHT22;67555;47.660;19.622;2023-07-30T01:15:31;19.70;73.00
78297;DHT22;67555;47.660;19.622;2023-07-30T01:17:57;19.70;73.10
78297;DHT22;67555;47.660;19.622;2023-07-30T01:20:22;19.70;73.00
78297;DHT22;67555;47.660;19.622;2023-07-30T01:22:48;19.70;73.00
78297;DHT22;67555;47.660;19.622;2023-07-30T01:25:16;19.70;73.20
78297;DHT22;67555;47.660;19.622;2023-07-30T01:27:48;19.50;73.30
78297;DHT22;67555;47.660;19.622;2023-07-30T01:30:29;19.50;73.60
78297;DHT22;67555;47.660;19.622;2023-07-30T01:32:55;19.50;73.80
78297;DHT22;67555;47.660;19.622;2023-07-30T01:35:26;19.40;73.90
78297;DHT22;67555;47.660;19.622;2023-07-30T01:37:53;19.40;74.00
78297;DHT22;67555;47.660;19.622;2023-07-30T01:40:20;19.40;74.00
78297;DHT22;67555;47.660;19.622;2023-07-30T01:42:46;19.50;74.00
78297;DHT22;67555;47.660;19.622;2023-07-30T01:45:12;19.50;74.10
78297;DHT22;67555;47.660;19.622;2023-07-30T01:47:37;19.50;74.20
78297;DHT22;67555;47.660;19.622;2023-07-30T01:50:03;19.70;73.90
78297;DHT22;67555;47.660;19.622;2023-07-30T01:52:29;19.70;73.80
78297;DHT22;67555;47.660;19.622;2023-07-30T01:54:55;19.70;73.70
78297;DHT22;67555;47.660;19.622;2023-07-30T01:57:24;19.70;73.70
78297;DHT22;67555;47.660;19.622;2023-07-30T01:59:50;19.80;73.60
78297;DHT22;67555;47.660;19.622;2023-07-30T02:02:16;19.90;73.50
78297;DHT22;67555;47.660;19.622;2023-07-30T02:04:41;20.00;73.30
78297;DHT22;67555;47.660;19.622;2023-07-30T02:07:07;20.00;73.20
78297;DHT22;67555;47.660;19.622;2023-07-30T02:09:33;20.00;73.20
78297;DHT22;67555;47.660;19.622;2023-07-30T02:11:58;20.00;73.20
78297;DHT22;67555;47.660;19.622;2023-07-30T02:14:24;20.00;73.20
78297;DHT22;67555;47.660;19.622;2023-07-30T02:16:50;20.00;73.40
78297;DHT22;67555;47.660;19.622;2023-07-30T02:19:16;20.10;73.60
78297;DHT22;67555;47.660;19.622;2023-07-30T02:21:41;20.10;73.60
78297;DHT22;67555;47.660;19.622;2023-07-30T02:24:11;20.10;73.50
78297;DHT22;67555;47.660;19.622;2023-07-30T02:26:40;20.20;73.30
78297;DHT22;67555;47.660;19.622;2023-07-30T02:29:06;20.30;73.10
78297;DHT22;67555;47.660;19.622;2023-07-30T02:31:32;20.30;72.90
78297;DHT22;67555;47.660;19.622;2023-07-30T02:33:57;20.40;72.70
78297;DHT22;67555;47.660;19.622;2023-07-30T02:36:23;20.30;72.70
78297;DHT22;67555;47.660;19.622;2023-07-30T02:38:49;20.30;72.70
78297;DHT22;67555;47.660;19.622;2023-07-30T02:41:16;20.30;72.60
78297;DHT22;67555;47.660;19.622;2023-07-30T02:43:41;20.40;72.50
78297;DHT22;67555;47.660;19.622;2023-07-30T02:46:07;20.40;72.50
78297;DHT22;67555;47.660;19.622;2023-07-30T02:48:33;20.50;72.40
78297;DHT22;67555;47.660;19.622;2023-07-30T02:50:59;20.50;72.40
78297;DHT22;67555;47.660;19.622;2023-07-30T02:53:24;20.50;72.40
78297;DHT22;67555;47.660;19.622;2023-07-30T02:55:50;20.50;72.30
78297;DHT22;67555;47.660;19.622;2023-07-30T02:58:16;20.50;72.30
78297;DHT22;67555;47.660;19.622;2023-07-30T03:00:42;20.50;72.20
78297;DHT22;67555;47.660;19.622;2023-07-30T03:03:07;20.60;72.10
78297;DHT22;67555;47.660;19.622;2023-07-30T03:05:33;20.60;72.00
78297;DHT22;67555;47.660;19.622;2023-07-30T03:07:59;20.60;72.00
78297;DHT22;67555;47.660;19.622;2023-07-30T03:10:24;20.60;72.00
78297;DHT22;67555;47.660;19.622;2023-07-30T03:12:50;20.60;71.90
78297;DHT22;67555;47.660;19.622;2023-07-30T03:15:16;20.60;71.80
78297;DHT22;67555;47.660;19.622;2023-07-30T03:17:41;20.60;71.80
78297;DHT22;67555;47.660;19.622;2023-07-30T03:20:07;20.60;71.80
78297;DHT22;67555;47.660;19.622;2023-07-30T03:22:34;20.60;71.80
78297;DHT22;67555;47.660;19.622;2023-07-30T03:25:00;20.60;71.90
78297;DHT22;67555;47.660;19.622;2023-07-30T03:27:25;20.50;72.00
78297;DHT22;67555;47.660;19.622;2023-07-30T03:29:51;20.50;72.20
78297;DHT22;67555;47.660;19.622;2023-07-30T03:32:17;20.40;72.40
78297;DHT22;67555;47.660;19.622;2023-07-30T03:34:42;20.30;72.60
78297;DHT22;67555;47.660;19.622;2023-07-30T03:37:08;20.30;72.80
78297;DHT22;67555;47.660;19.622;2023-07-30T03:39:34;20.20;73.00
78297;DHT22;67555;47.660;19.622;2023-07-30T03:41:59;20.10;73.20
78297;DHT22;67555;47.660;19.622;2023-07-30T03:44:25;20.10;73.50
78297;DHT22;67555;47.660;19.622;2023-07-30T03:46:51;20.10;73.60
78297;DHT22;67555;47.660;19.622;2023-07-30T03:49:17;20.00;73.70
78297;DHT22;67555;47.660;19.622;2023-07-30T03:51:42;20.00;73.80
78297;DHT22;67555;47.660;19.622;2023-07-30T03:54:08;20.10;73.80
78297;DHT22;67555;47.660;19.622;2023-07-30T03:56:34;20.00;74.00
78297;DHT22;67555;47.660;19.622;2023-07-30T03:58:59;20.00;74.10
78297;DHT22;67555;47.660;19.622;2023-07-30T04:01:25;20.00;74.20
78297;DHT22;67555;47.660;19.622;2023-07-30T04:03:51;20.00;74.30
78297;DHT22;67555;47.660;19.622;2023-07-30T04:06:16;20.10;74.30
78297;DHT22;67555;47.660;19.622;2023-07-30T04:08:42;20.10;74.20
78297;DHT22;67555;47.660;19.622;2023-07-30T04:11:08;20.10;74.30
78297;DHT22;67555;47.660;19.622;2023-07-30T04:13:33;20.20;74.30
78297;DHT22;67555;47.660;19.622;2023-07-30T04:15:59;20.30;74.20
78297;DHT22;67555;47.660;19.622;2023-07-30T04:18:25;20.30;74.20
78297;DHT22;67555;47.660;19.622;2023-07-30T04:20:51;20.30;74.20
78297;DHT22;67555;47.660;19.622;2023-07-30T04:23:19;20.30;74.20
78297;DHT22;67555;47.660;19.622;2023-07-30T04:25:44;20.30;74.20
78297;DHT22;67555;47.660;19.622;2023-07-30T04:28:10;20.40;74.00
78297;DHT22;67555;47.660;19.622;2023-07-30T04:30:36;20.50;73.90
78297;DHT22;67555;47.660;19.622;2023-07-30T04:33:01;20.50;73.80
78297;DHT22;67555;47.660;19.622;2023-07-30T04:35:27;20.70;73.60
78297;DHT22;67555;47.660;19.622;2023-07-30T04:37:53;20.90;73.20
78297;DHT22;67555;47.660;19.622;2023-07-30T04:40:19;21.00;72.90
78297;DHT22;67555;47.660;19.622;2023-07-30T04:42:44;21.10;72.60
78297;DHT22;67555;47.660;19.622;2023-07-30T04:45:11;21.10;72.60
78297;DHT22;67555;47.660;19.622;2023-07-30T04:47:37;21.10;72.70
78297;DHT22;67555;47.660;19.622;2023-07-30T04:50:03;21.10;72.80
78297;DHT22;67555;47.660;19.622;2023-07-30T04:52:28;21.10;72.70
78297;DHT22;67555;47.660;19.622;2023-07-30T04:54:54;21.20;72.70
78297;DHT22;67555;47.660;19.622;2023-07-30T04:57:20;21.30;72.60
78297;DHT22;67555;47.660;19.622;2023-07-30T04:59:46;21.30;72.50
78297;DHT22;67555;47.660;19.622;2023-07-30T05:02:11;21.30;72.50
78297;DHT22;67555;47.660;19.622;2023-07-30T05:04:37;21.30;72.60
78297;DHT22;67555;47.660;19.622;2023-07-30T05:07:03;21.30;72.70
78297;DHT22;67555;47.660;19.622;2023-07-30T05:09:28;21.40;72.70
78297;DHT22;67555;47.660;19.622;2023-07-30T05:11:54;21.40;72.70
78297;DHT22;67555;47.660;19.622;2023-07-30T05:14:20;21.40;72.70
78297;DHT22;67555;47.660;19.622;2023-07-30T05:16:45;21.50;72.70
78297;DHT22;67555;47.660;19.622;2023-07-30T05:19:11;21.50;72.50
78297;DHT22;67555;47.660;19.622;2023-07-30T05:21:37;21.60;72.40
78297;DHT22;67555;47.660;19.622;2023-07-30T05:24:03;21.70;72.10
78297;DHT22;67555;47.660;19.622;2023-07-30T05:26:28;21.70;72.00
78297;DHT22;67555;47.660;19.622;2023-07-30T05:28:54;21.70;72.00
78297;DHT22;67555;47.660;19.622;2023-07-30T05:31:20;21.70;72.10
78297;DHT22;67555;47.660;19.622;2023-07-30T05:33:45;21.70;72.10
78297;DHT22;67555;47.660;19.622;2023-07-30T05:36:11;21.70;72.10
78297;DHT22;67555;47.660;19.622;2023-07-30T05:38:37;21.70;71.90
78297;DHT22;67555;47.660;19.622;2023-07-30T05:41:03;21.70;71.80
78297;DHT22;67555;47.660;19.622;2023-07-30T05:43:28;21.70;71.80
78297;DHT22;67555;47.660;19.622;2023-07-30T05:45:54;21.80;71.80
78297;DHT22;67555;47.660;19.622;2023-07-30T05:48:20;21.90;71.70
78297;DHT22;67555;47.660;19.622;2023-07-30T05:50:45;21.90;71.60
78297;DHT22;67555;47.660;19.622;2023-07-30T05:53:11;21.90;71.40
78297;DHT22;67555;47.660;19.622;2023-07-30T05:55:37;21.90;71.50
78297;DHT22;67555;47.660;19.622;2023-07-30T05:58:03;22.00;71.50
78297;DHT22;67555;47.660;19.622;2023-07-30T06:00:28;22.10;71.40
78297;DHT22;67555;47.660;19.622;2023-07-30T06:02:54;22.20;71.10
78297;DHT22;67555;47.660;19.622;2023-07-30T06:05:20;22.30;70.90
78297;DHT22;67555;47.660;19.622;2023-07-30T06:07:45;22.30;70.80
78297;DHT22;67555;47.660;19.622;2023-07-30T06:10:11;22.50;70.70
78297;DHT22;67555;47.660;19.622;2023-07-30T06:12:37;22.50;70.30
78297;DHT22;67555;47.660;19.622;2023-07-30T06:15:02;22.60;69.90
78297;DHT22;67555;47.660;19.622;2023-07-30T06:17:28;22.60;69.40
78297;DHT22;67555;47.660;19.622;2023-07-30T06:19:54;22.70;69.40
78297;DHT22;67555;47.660;19.622;2023-07-30T06:22:20;22.70;69.30
78297;DHT22;67555;47.660;19.622;2023-07-30T06:24:46;22.70;69.20
78297;DHT22;67555;47.660;19.622;2023-07-30T06:27:12;22.80;69.00
78297;DHT22;67555;47.660;19.622;2023-07-30T06:29:38;22.90;68.70
78297;DHT22;67555;47.660;19.622;2023-07-30T06:32:04;22.90;68.40
78297;DHT22;67555;47.660;19.622;2023-07-30T06:34:30;23.00;68.20
78297;DHT22;67555;47.660;19.622;2023-07-30T06:36:57;23.10;68.00
78297;DHT22;67555;47.660;19.622;2023-07-30T06:39:23;23.10;67.40
78297;DHT22;67555;47.660;19.622;2023-07-30T06:41:49;23.10;67.40
78297;DHT22;67555;47.660;19.622;2023-07-30T06:44:14;23.10;67.30
78297;DHT22;67555;47.660;19.622;2023-07-30T06:46:41;23.00;67.30
78297;DHT22;67555;47.660;19.622;2023-07-30T06:49:07;23.10;67.30
78297;DHT22;67555;47.660;19.622;2023-07-30T06:51:33;23.20;67.00
78297;DHT22;67555;47.660;19.622;2023-07-30T06:54:00;23.30;66.70
78297;DHT22;67555;47.660;19.622;2023-07-30T06:56:26;23.40;66.50
78297;DHT22;67555;47.660;19.622;2023-07-30T06:58:51;23.50;66.20
78297;DHT22;67555;47.660;19.622;2023-07-30T07:01:17;23.60;65.90
78297;DHT22;67555;47.660;19.622;2023-07-30T07:03:43;23.60;65.60
78297;DHT22;67555;47.660;19.622;2023-07-30T07:06:09;23.80;65.30
78297;DHT22;67555;47.660;19.622;2023-07-30T07:08:34;23.90;65.20
78297;DHT22;67555;47.660;19.622;2023-07-30T07:11:00;24.00;64.90
78297;DHT22;67555;47.660;19.622;2023-07-30T07:13:26;24.10;64.70
78297;DHT22;67555;47.660;19.622;2023-07-30T07:15:51;24.20;64.20
78297;DHT22;67555;47.660;19.622;2023-07-30T07:18:21;24.30;63.80
78297;DHT22;67555;47.660;19.622;2023-07-30T07:20:50;24.40;63.40
78297;DHT22;67555;47.660;19.622;2023-07-30T07:23:16;24.40;63.60
78297;DHT22;67555;47.660;19.622;2023-07-30T07:25:44;24.60;63.50
78297;DHT22;67555;47.660;19.622;2023-07-30T07:28:09;24.70;62.60
78297;DHT22;67555;47.660;19.622;2023-07-30T07:30:36;24.80;62.50
78297;DHT22;67555;47.660;19.622;2023-07-30T07:33:04;25.00;62.30
78297;DHT22;67555;47.660;19.622;2023-07-30T07:35:31;25.20;62.00
78297;DHT22;67555;47.660;19.622;2023-07-30T07:37:57;25.20;61.40
78297;DHT22;67555;47.660;19.622;2023-07-30T07:40:23;25.30;61.60
78297;DHT22;67555;47.660;19.622;2023-07-30T07:42:48;25.40;61.30
78297;DHT22;67555;47.660;19.622;2023-07-30T07:45:14;25.30;61.40
78297;DHT22;67555;47.660;19.622;2023-07-30T07:47:40;25.30;61.60
78297;DHT22;67555;47.660;19.622;2023-07-30T07:50:06;25.30;61.80
78297;DHT22;67555;47.660;19.622;2023-07-30T07:52:32;25.40;61.80
78297;DHT22;67555;47.660;19.622;2023-07-30T07:54:57;25.40;61.90
78297;DHT22;67555;47.660;19.622;2023-07-30T07:57:23;25.20;62.00
78297;DHT22;67555;47.660;19.622;2023-07-30T07:59:49;25.00;62.20
78297;DHT22;67555;47.660;19.622;2023-07-30T08:02:15;24.80;62.00
78297;DHT22;67555;47.660;19.622;2023-07-30T08:04:42;24.70;62.20
78297;DHT22;67555;47.660;19.622;2023-07-30T08:07:08;24.50;62.60
78297;DHT22;67555;47.660;19.622;2023-07-30T08:09:33;24.40;62.90
78297;DHT22;67555;47.660;19.622;2023-07-30T08:11:59;24.30;63.20
78297;DHT22;67555;47.660;19.622;2023-07-30T08:14:26;24.20;63.60
78297;DHT22;67555;47.660;19.622;2023-07-30T08:16:52;24.20;63.80
78297;DHT22;67555;47.660;19.622;2023-07-30T08:19:17;24.00;64.10
78297;DHT22;67555;47.660;19.622;2023-07-30T08:21:43;24.00;64.10
78297;DHT22;67555;47.660;19.622;2023-07-30T08:24:09;24.00;64.10
78297;DHT22;67555;47.660;19.622;2023-07-30T08:26:34;23.90;64.10
78297;DHT22;67555;47.660;19.622;2023-07-30T08:29:00;23.90;63.90
78297;DHT22;67555;47.660;19.622;2023-07-30T08:31:26;23.80;63.90
78297;DHT22;67555;47.660;19.622;2023-07-30T08:33:51;23.60;64.20
78297;DHT22;67555;47.660;19.622;2023-07-30T08:36:17;23.60;64.60
78297;DHT22;67555;47.660;19.622;2023-07-30T08:38:43;23.50;65.50
78297;DHT22;67555;47.660;19.622;2023-07-30T08:41:09;23.40;66.50
78297;DHT22;67555;47.660;19.622;2023-07-30T08:43:35;23.30;67.50
78297;DHT22;67555;47.660;19.622;2023-07-30T08:46:01;23.30;68.10
78297;DHT22;67555;47.660;19.622;2023-07-30T08:48:27;23.30;69.00
78297;DHT22;67555;47.660;19.622;2023-07-30T08:50:56;23.30;69.60
78297;DHT22;67555;47.660;19.622;2023-07-30T08:53:26;23.30;70.10
78297;DHT22;67555;47.660;19.622;2023-07-30T08:55:54;23.30;70.50
78297;DHT22;67555;47.660;19.622;2023-07-30T08:58:22;23.30;71.30
78297;DHT22;67555;47.660;19.622;2023-07-30T09:00:49;23.30;71.40
78297;DHT22;67555;47.660;19.622;2023-07-30T09:03:17;23.30;72.10
78297;DHT22;67555;47.660;19.622;2023-07-30T09:05:43;23.30;72.20
78297;DHT22;67555;47.660;19.622;2023-07-30T09:08:10;23.30;72.60
78297;DHT22;67555;47.660;19.622;2023-07-30T09:10:36;23.40;72.60
78297;DHT22;67555;47.660;19.622;2023-07-30T09:13:03;23.50;72.70
78297;DHT22;67555;47.660;19.622;2023-07-30T09:15:33;23.60;72.10
78297;DHT22;67555;47.660;19.622;2023-07-30T09:18:00;23.60;71.20
78297;DHT22;67555;47.660;19.622;2023-07-30T09:20:27;23.80;71.50
78297;DHT22;67555;47.660;19.622;2023-07-30T09:22:56;23.80;70.40
78297;DHT22;67555;47.660;19.622;2023-07-30T09:25:22;23.80;69.90
78297;DHT22;67555;47.660;19.622;2023-07-30T09:27:51;23.90;70.00
78297;DHT22;67555;47.660;19.622;2023-07-30T09:30:25;24.00;69.50
78297;DHT22;67555;47.660;19.622;2023-07-30T09:32:53;23.90;68.90
78297;DHT22;67555;47.660;19.622;2023-07-30T09:35:19;23.90;69.00
78297;DHT22;67555;47.660;19.622;2023-07-30T09:37:45;23.90;68.50
78297;DHT22;67555;47.660;19.622;2023-07-30T09:40:13;23.90;68.80
78297;DHT22;67555;47.660;19.622;2023-07-30T09:42:43;23.80;68.90
78297;DHT22;67555;47.660;19.622;2023-07-30T09:45:23;23.60;69.00
78297;DHT22;67555;47.660;19.622;2023-07-30T09:47:50;23.60;69.60
78297;DHT22;67555;47.660;19.622;2023-07-30T09:50:17;23.60;69.50
78297;DHT22;67555;47.660;19.622;2023-07-30T09:52:43;23.60;69.40
78297;DHT22;67555;47.660;19.622;2023-07-30T09:55:09;23.50;69.50
78297;DHT22;67555;47.660;19.622;2023-07-30T09:57:36;23.50;70.00
78297;DHT22;67555;47.660;19.622;2023-07-30T10:00:06;23.40;69.80
78297;DHT22;67555;47.660;19.622;2023-07-30T10:02:39;23.30;68.90
78297;DHT22;67555;47.660;19.622;2023-07-30T10:05:16;23.20;68.70
78297;DHT22;67555;47.660;19.622;2023-07-30T10:10:23;23.00;70.10
78297;DHT22;67555;47.660;19.622;2023-07-30T10:12:51;23.00;70.30
78297;DHT22;67555;47.660;19.622;2023-07-30T10:15:21;23.00;70.40
78297;DHT22;67555;47.660;19.622;2023-07-30T10:17:50;23.00;70.50
78297;DHT22;67555;47.660;19.622;2023-07-30T10:22:46;23.10;70.30
78297;DHT22;67555;47.660;19.622;2023-07-30T10:25:12;23.10;69.90
78297;DHT22;67555;47.660;19.622;2023-07-30T10:27:41;23.10;69.40
78297;DHT22;67555;47.660;19.622;2023-07-30T10:30:16;23.10;69.60
78297;DHT22;67555;47.660;19.622;2023-07-30T10:33:00;23.20;69.80
78297;DHT22;67555;47.660;19.622;2023-07-30T10:35:42;23.40;69.80
78297;DHT22;67555;47.660;19.622;2023-07-30T10:38:20;23.50;69.40
78297;DHT22;67555;47.660;19.622;2023-07-30T10:41:07;23.60;69.10
78297;DHT22;67555;47.660;19.622;2023-07-30T10:46:06;23.80;68.90
78297;DHT22;67555;47.660;19.622;2023-07-30T10:48:36;23.90;68.70
78297;DHT22;67555;47.660;19.622;2023-07-30T10:51:05;24.00;68.60
78297;DHT22;67555;47.660;19.622;2023-07-30T10:53:32;24.00;68.50
78297;DHT22;67555;47.660;19.622;2023-07-30T10:56:00;24.00;68.60
78297;DHT22;67555;47.660;19.622;2023-07-30T10:58:33;24.00;68.70
78297;DHT22;67555;47.660;19.622;2023-07-30T11:01:01;24.00;68.70
78297;DHT22;67555;47.660;19.622;2023-07-30T11:03:29;24.00;68.70
78297;DHT22;67555;47.660;19.622;2023-07-30T11:05:55;24.00;68.70
78297;DHT22;67555;47.660;19.622;2023-07-30T11:08:41;24.20;68.80
78297;DHT22;67555;47.660;19.622;2023-07-30T11:11:09;24.20;68.70
78297;DHT22;67555;47.660;19.622;2023-07-30T11:13:45;24.20;68.60
78297;DHT22;67555;47.660;19.622;2023-07-30T11:16:15;24.30;68.60
78297;DHT22;67555;47.660;19.622;2023-07-30T11:18:42;24.40;68.40
78297;DHT22;67555;47.660;19.622;2023-07-30T11:21:10;24.40;68.40
78297;DHT22;67555;47.660;19.622;2023-07-30T11:23:38;24.40;68.60
78297;DHT22;67555;47.660;19.622;2023-07-30T11:26:06;24.40;68.80
78297;DHT22;67555;47.660;19.622;2023-07-30T11:28:34;24.40;68.80
78297;DHT22;67555;47.660;19.622;2023-07-30T11:31:07;24.50;68.40
78297;DHT22;67555;47.660;19.622;2023-07-30T11:33:39;24.50;68.00
78297;DHT22;67555;47.660;19.622;2023-07-30T11:36:08;24.40;67.80
78297;DHT22;67555;47.660;19.622;2023-07-30T11:38:35;24.20;68.20
78297;DHT22;67555;47.660;19.622;2023-07-30T11:41:01;24.00;68.60
78297;DHT22;67555;47.660;19.622;2023-07-30T11:43:27;24.20;68.60
78297;DHT22;67555;47.660;19.622;2023-07-30T11:46:12;24.20;68.40
78297;DHT22;67555;47.660;19.622;2023-07-30T11:48:43;24.40;68.20
78297;DHT22;67555;47.660;19.622;2023-07-30T11:51:28;24.30;68.10
78297;DHT22;67555;47.660;19.622;2023-07-30T11:53:56;24.20;68.40
78297;DHT22;67555;47.660;19.622;2023-07-30T11:56:26;24.20;68.20
78297;DHT22;67555;47.660;19.622;2023-07-30T11:59:00;24.10;68.40
78297;DHT22;67555;47.660;19.622;2023-07-30T12:01:29;24.00;68.70
78297;DHT22;67555;47.660;19.622;2023-07-30T12:03:56;23.90;68.80
78297;DHT22;67555;47.660;19.622;2023-07-30T12:06:24;23.90;68.90
78297;DHT22;67555;47.660;19.622;2023-07-30T12:08:51;23.90;68.30
78297;DHT22;67555;47.660;19.622;2023-07-30T12:11:18;23.90;67.50
78297;DHT22;67555;47.660;19.622;2023-07-30T12:13:45;23.80;67.20
78297;DHT22;67555;47.660;19.622;2023-07-30T12:16:12;23.70;67.50
78297;DHT22;67555;47.660;19.622;2023-07-30T12:18:39;23.60;68.00
78297;DHT22;67555;47.660;19.622;2023-07-30T12:21:06;23.60;68.10
78297;DHT22;67555;47.660;19.622;2023-07-30T12:23:37;23.60;68.10
78297;DHT22;67555;47.660;19.622;2023-07-30T12:26:04;23.60;68.00
78297;DHT22;67555;47.660;19.622;2023-07-30T12:28:34;23.50;68.30
78297;DHT22;67555;47.660;19.622;2023-07-30T12:31:00;23.30;68.70
78297;DHT22;67555;47.660;19.622;2023-07-30T12:33:26;23.20;69.40
78297;DHT22;67555;47.660;19.622;2023-07-30T12:35:52;23.00;70.30
78297;DHT22;67555;47.660;19.622;2023-07-30T12:38:18;22.90;71.20
78297;DHT22;67555;47.660;19.622;2023-07-30T12:40:44;22.80;72.00
78297;DHT22;67555;47.660;19.622;2023-07-30T12:43:10;22.60;72.50
78297;DHT22;67555;47.660;19.622;2023-07-30T12:45:36;22.50;72.80
78297;DHT22;67555;47.660;19.622;2023-07-30T12:48:02;22.50;72.90
78297;DHT22;67555;47.660;19.622;2023-07-30T12:50:28;22.30;73.30
78297;DHT22;67555;47.660;19.622;2023-07-30T12:52:53;22.30;73.80
78297;DHT22;67555;47.660;19.622;2023-07-30T12:55:19;22.30;74.30
78297;DHT22;67555;47.660;19.622;2023-07-30T12:57:45;22.20;74.40
78297;DHT22;67555;47.660;19.622;2023-07-30T13:00:11;22.20;74.50
78297;DHT22;67555;47.660;19.622;2023-07-30T13:02:37;22.20;74.60
78297;DHT22;67555;47.660;19.622;2023-07-30T13:05:04;22.20;74.70
78297;DHT22;67555;47.660;19.622;2023-07-30T13:07:30;22.30;75.00
78297;DHT22;67555;47.660;19.622;2023-07-30T13:10:04;22.30;75.00
78297;DHT22;67555;47.660;19.622;2023-07-30T13:12:31;22.30;75.20
78297;DHT22;67555;47.660;19.622;2023-07-30T13:14:57;22.20;75.50
78297;DHT22;67555;47.660;19.622;2023-07-30T13:17:23;22.30;75.60
78297;DHT22;67555;47.660;19.622;2023-07-30T13:19:50;22.50;75.50
78297;DHT22;67555;47.660;19.622;2023-07-30T13:22:16;22.70;75.30
78297;DHT22;67555;47.660;19.622;2023-07-30T13:24:43;23.00;74.70
78297;DHT22;67555;47.660;19.622;2023-07-30T13:27:10;23.20;74.10
78297;DHT22;67555;47.660;19.622;2023-07-30T13:29:36;23.40;73.50
78297;DHT22;67555;47.660;19.622;2023-07-30T13:32:02;23.60;72.80
78297;DHT22;67555;47.660;19.622;2023-07-30T13:34:28;23.80;72.40
78297;DHT22;67555;47.660;19.622;2023-07-30T13:37:14;23.80;71.90
78297;DHT22;67555;47.660;19.622;2023-07-30T13:39:40;23.90;71.50
78297;DHT22;67555;47.660;19.622;2023-07-30T13:42:07;24.00;71.40
78297;DHT22;67555;47.660;19.622;2023-07-30T13:44:33;24.20;70.80
78297;DHT22;67555;47.660;19.622;2023-07-30T13:46:59;24.20;70.40
78297;DHT22;67555;47.660;19.622;2023-07-30T13:49:25;24.20;70.40
78297;DHT22;67555;47.660;19.622;2023-07-30T13:51:51;24.20;70.80
78297;DHT22;67555;47.660;19.622;2023-07-30T13:54:18;24.40;70.80
78297;DHT22;67555;47.660;19.622;2023-07-30T13:56:44;24.40;70.50
78297;DHT22;67555;47.660;19.622;2023-07-30T13:59:10;24.60;69.80
78297;DHT22;67555;47.660;19.622;2023-07-30T14:01:36;24.70;69.40
78297;DHT22;67555;47.660;19.622;2023-07-30T14:04:02;25.00;68.80
78297;DHT22;67555;47.660;19.622;2023-07-30T14:06:28;25.40;68.40
78297;DHT22;67555;47.660;19.622;2023-07-30T14:08:55;25.70;67.50
78297;DHT22;67555;47.660;19.622;2023-07-30T14:11:41;26.00;66.70
78297;DHT22;67555;47.660;19.622;2023-07-30T14:14:10;26.20;65.70
78297;DHT22;67555;47.660;19.622;2023-07-30T14:16:37;26.10;64.90
78297;DHT22;67555;47.660;19.622;2023-07-30T14:19:03;25.80;65.50
78297;DHT22;67555;47.660;19.622;2023-07-30T14:21:29;25.70;66.00
78297;DHT22;67555;47.660;19.622;2023-07-30T14:23:55;25.80;66.10
78297;DHT22;67555;47.660;19.622;2023-07-30T14:26:21;26.10;65.70
78297;DHT22;67555;47.660;19.622;2023-07-30T14:28:47;26.40;65.30
78297;DHT22;67555;47.660;19.622;2023-07-30T14:31:13;26.40;64.70
78297;DHT22;67555;47.660;19.622;2023-07-30T14:33:40;26.40;64.30
78297;DHT22;67555;47.660;19.622;2023-07-30T14:36:07;26.40;64.70
78297;DHT22;67555;47.660;19.622;2023-07-30T14:38:33;26.40;64.60
78297;DHT22;67555;47.660;19.622;2023-07-30T14:41:00;26.40;64.10
78297;DHT22;67555;47.660;19.622;2023-07-30T14:43:26;26.20;64.30
78297;DHT22;67555;47.660;19.622;2023-07-30T14:45:52;26.30;64.50
78297;DHT22;67555;47.660;19.622;2023-07-30T14:48:18;26.40;63.70
78297;DHT22;67555;47.660;19.622;2023-07-30T14:50:44;26.30;63.70
78297;DHT22;67555;47.660;19.622;2023-07-30T14:53:10;26.10;63.70
78297;DHT22;67555;47.660;19.622;2023-07-30T14:55:36;26.00;64.10
78297;DHT22;67555;47.660;19.622;2023-07-30T14:58:02;26.00;64.10
78297;DHT22;67555;47.660;19.622;2023-07-30T15:00:29;25.90;64.00
78297;DHT22;67555;47.660;19.622;2023-07-30T15:02:54;25.90;63.90
78297;DHT22;67555;47.660;19.622;2023-07-30T15:05:22;25.80;63.80
78297;DHT22;67555;47.660;19.622;2023-07-30T15:07:48;25.70;64.10
78297;DHT22;67555;47.660;19.622;2023-07-30T15:10:13;25.80;64.20
78297;DHT22;67555;47.660;19.622;2023-07-30T15:12:43;25.80;63.00
78297;DHT22;67555;47.660;19.622;2023-07-30T15:15:09;25.70;63.50
78297;DHT22;67555;47.660;19.622;2023-07-30T15:17:36;25.70;63.70
78297;DHT22;67555;47.660;19.622;2023-07-30T15:20:02;25.70;63.20
78297;DHT22;67555;47.660;19.622;2023-07-30T15:22:28;25.80;63.30